Wisconsin Dells, Wisconsin
Current Conditions -  °F | °C
As of 12:35 AM on Tuesday 21 Oct 2014 (Local Time) from KDLL Reporting Station
Overcast Overcast  
Wind Chill: 46°   Ceiling: 4200
Heat Index: 48°   Visibility: 10mi
Dew Point: 39°   Wind: 6mph
Humidity: 71%   Direction: 20°NNE
Pressure: 30.05"   Gusts: NA
Location:  43.63°N, 89.77°W
Report Text: KDLL 210535Z AUTO 02005KT 10SM OVC042 09/04 A3005 RMK AO2 T00910040
Loading
Personal Weather Stations






























Interactive Weather Map New forecast layout! Learn more

10-Day Weather Forecast

Advertisements
Track Severe Weather on mobile